sensor_id;sensor_type;location;lat;lon;timestamp;P1;durP1;ratioP1;P2;durP2;ratioP2
26824;SDS011;14402;48.178;11.566;2024-01-27T00:00:24;2.6;;;1.2;;
26824;SDS011;14402;48.178;11.566;2024-01-27T00:00:54;2.6;;;1.2;;
26824;SDS011;14402;48.178;11.566;2024-01-27T00:01:24;3.2;;;1.2;;
26824;SDS011;14402;48.178;11.566;2024-01-27T00:01:54;3.9;;;1.2;;
26824;SDS011;14402;48.178;11.566;2024-01-27T00:02:24;3.9;;;1.2;;
26824;SDS011;14402;48.178;11.566;2024-01-27T00:02:54;3.9;;;1.2;;
26824;SDS011;14402;48.178;11.566;2024-01-27T00:03:24;3.1;;;1.1;;
26824;SDS011;14402;48.178;11.566;2024-01-27T00:03:54;2.2;;;1.0;;
26824;SDS011;14402;48.178;11.566;2024-01-27T00:04:24;2.2;;;1.0;;
26824;SDS011;14402;48.178;11.566;2024-01-27T00:04:54;2.2;;;1.0;;
26824;SDS011;14402;48.178;11.566;2024-01-27T00:05:24;2.5;;;1.1;;
26824;SDS011;14402;48.178;11.566;2024-01-27T00:05:55;2.8;;;1.2;;
26824;SDS011;14402;48.178;11.566;2024-01-27T00:06:25;2.8;;;1.2;;
26824;SDS011;14402;48.178;11.566;2024-01-27T00:06:55;2.8;;;1.2;;
26824;SDS011;14402;48.178;11.566;2024-01-27T00:07:25;2.9;;;1.2;;
26824;SDS011;14402;48.178;11.566;2024-01-27T00:07:55;3.1;;;1.3;;
26824;SDS011;14402;48.178;11.566;2024-01-27T00:08:25;3.1;;;1.3;;
26824;SDS011;14402;48.178;11.566;2024-01-27T00:08:55;3.1;;;1.3;;
26824;SDS011;14402;48.178;11.566;2024-01-27T00:09:25;2.8;;;1.2;;
26824;SDS011;14402;48.178;11.566;2024-01-27T00:09:55;2.5;;;1.2;;
26824;SDS011;14402;48.178;11.566;2024-01-27T00:10:25;2.5;;;1.2;;
26824;SDS011;14402;48.178;11.566;2024-01-27T00:10:56;2.5;;;1.2;;
26824;SDS011;14402;48.178;11.566;2024-01-27T00:11:25;3.7;;;1.3;;
26824;SDS011;14402;48.178;11.566;2024-01-27T00:11:56;4.8;;;1.4;;
26824;SDS011;14402;48.178;11.566;2024-01-27T00:12:26;4.8;;;1.4;;
26824;SDS011;14402;48.178;11.566;2024-01-27T00:12:56;4.8;;;1.4;;
26824;SDS011;14402;48.178;11.566;2024-01-27T00:13:26;3.8;;;1.2;;
26824;SDS011;14402;48.178;11.566;2024-01-27T00:13:56;2.7;;;1.0;;
26824;SDS011;14402;48.178;11.566;2024-01-27T00:14:26;2.7;;;1.0;;
26824;SDS011;14402;48.178;11.566;2024-01-27T00:14:56;2.7;;;1.0;;
26824;SDS011;14402;48.178;11.566;2024-01-27T00:15:26;3.2;;;1.1;;
26824;SDS011;14402;48.178;11.566;2024-01-27T00:15:56;3.8;;;1.3;;
26824;SDS011;14402;48.178;11.566;2024-01-27T00:16:26;3.8;;;1.3;;
26824;SDS011;14402;48.178;11.566;2024-01-27T00:16:57;3.8;;;1.3;;
26824;SDS011;14402;48.178;11.566;2024-01-27T00:17:27;3.4;;;1.4;;
26824;SDS011;14402;48.178;11.566;2024-01-27T00:17:57;3.1;;;1.5;;
26824;SDS011;14402;48.178;11.566;2024-01-27T00:18:27;3.1;;;1.5;;
26824;SDS011;14402;48.178;11.566;2024-01-27T00:18:57;3.1;;;1.5;;
26824;SDS011;14402;48.178;11.566;2024-01-27T00:19:27;3.6;;;1.5;;
26824;SDS011;14402;48.178;11.566;2024-01-27T00:19:57;4.2;;;1.5;;
26824;SDS011;14402;48.178;11.566;2024-01-27T00:20:27;4.2;;;1.5;;
26824;SDS011;14402;48.178;11.566;2024-01-27T00:20:57;4.2;;;1.5;;
26824;SDS011;14402;48.178;11.566;2024-01-27T00:21:27;3.9;;;1.5;;
26824;SDS011;14402;48.178;11.566;2024-01-27T00:21:57;3.7;;;1.6;;
26824;SDS011;14402;48.178;11.566;2024-01-27T00:22:27;3.7;;;1.6;;
26824;SDS011;14402;48.178;11.566;2024-01-27T00:22:58;3.7;;;1.6;;
26824;SDS011;14402;48.178;11.566;2024-01-27T00:23:28;3.2;;;1.5;;
26824;SDS011;14402;48.178;11.566;2024-01-27T00:23:58;2.6;;;1.3;;
26824;SDS011;14402;48.178;11.566;2024-01-27T00:24:28;2.6;;;1.3;;
26824;SDS011;14402;48.178;11.566;2024-01-27T00:24:58;2.6;;;1.3;;
26824;SDS011;14402;48.178;11.566;2024-01-27T00:25:28;3.5;;;1.3;;
26824;SDS011;14402;48.178;11.566;2024-01-27T00:25:58;4.5;;;1.4;;
26824;SDS011;14402;48.178;11.566;2024-01-27T00:26:28;4.5;;;1.4;;
26824;SDS011;14402;48.178;11.566;2024-01-27T00:26:59;4.5;;;1.4;;
26824;SDS011;14402;48.178;11.566;2024-01-27T00:27:28;4.5;;;1.3;;
26824;SDS011;14402;48.178;11.566;2024-01-27T00:27:58;4.5;;;1.3;;
26824;SDS011;14402;48.178;11.566;2024-01-27T00:28:29;4.5;;;1.3;;
26824;SDS011;14402;48.178;11.566;2024-01-27T00:28:59;4.5;;;1.3;;
26824;SDS011;14402;48.178;11.566;2024-01-27T00:29:29;3.7;;;1.3;;
26824;SDS011;14402;48.178;11.566;2024-01-27T00:29:59;2.9;;;1.4;;
26824;SDS011;14402;48.178;11.566;2024-01-27T00:30:29;2.9;;;1.4;;
26824;SDS011;14402;48.178;11.566;2024-01-27T00:30:59;2.9;;;1.4;;
26824;SDS011;14402;48.178;11.566;2024-01-27T00:31:29;3.1;;;1.3;;
26824;SDS011;14402;48.178;11.566;2024-01-27T00:31:59;3.3;;;1.2;;
26824;SDS011;14402;48.178;11.566;2024-01-27T00:32:29;3.3;;;1.2;;
26824;SDS011;14402;48.178;11.566;2024-01-27T00:32:59;3.3;;;1.2;;
26824;SDS011;14402;48.178;11.566;2024-01-27T00:33:29;2.8;;;1.2;;
26824;SDS011;14402;48.178;11.566;2024-01-27T00:33:59;2.3;;;1.3;;
26824;SDS011;14402;48.178;11.566;2024-01-27T00:34:30;2.3;;;1.3;;
26824;SDS011;14402;48.178;11.566;2024-01-27T00:35:00;2.3;;;1.3;;
26824;SDS011;14402;48.178;11.566;2024-01-27T00:35:30;2.8;;;1.3;;
26824;SDS011;14402;48.178;11.566;2024-01-27T00:36:00;3.2;;;1.3;;
26824;SDS011;14402;48.178;11.566;2024-01-27T00:36:30;3.2;;;1.3;;
26824;SDS011;14402;48.178;11.566;2024-01-27T00:37:00;3.2;;;1.3;;
26824;SDS011;14402;48.178;11.566;2024-01-27T00:37:30;2.8;;;1.2;;
26824;SDS011;14402;48.178;11.566;2024-01-27T00:38:00;2.5;;;1.2;;
26824;SDS011;14402;48.178;11.566;2024-01-27T00:38:30;2.5;;;1.2;;
26824;SDS011;14402;48.178;11.566;2024-01-27T00:39:00;2.5;;;1.2;;
26824;SDS011;14402;48.178;11.566;2024-01-27T00:39:31;4.0;;;1.4;;
26824;SDS011;14402;48.178;11.566;2024-01-27T00:40:01;5.4;;;1.5;;
26824;SDS011;14402;48.178;11.566;2024-01-27T00:40:31;5.4;;;1.5;;
26824;SDS011;14402;48.178;11.566;2024-01-27T00:41:01;5.4;;;1.5;;
26824;SDS011;14402;48.178;11.566;2024-01-27T00:41:31;4.2;;;1.4;;
26824;SDS011;14402;48.178;11.566;2024-01-27T00:42:01;3.0;;;1.3;;
26824;SDS011;14402;48.178;11.566;2024-01-27T00:42:31;3.0;;;1.3;;
26824;SDS011;14402;48.178;11.566;2024-01-27T00:43:01;3.0;;;1.3;;
26824;SDS011;14402;48.178;11.566;2024-01-27T00:43:31;3.5;;;1.5;;
26824;SDS011;14402;48.178;11.566;2024-01-27T00:44:01;4.0;;;1.6;;
26824;SDS011;14402;48.178;11.566;2024-01-27T00:44:31;4.0;;;1.6;;
26824;SDS011;14402;48.178;11.566;2024-01-27T00:45:03;4.0;;;1.6;;
26824;SDS011;14402;48.178;11.566;2024-01-27T00:45:32;3.5;;;1.4;;
26824;SDS011;14402;48.178;11.566;2024-01-27T00:46:02;2.9;;;1.2;;
26824;SDS011;14402;48.178;11.566;2024-01-27T00:46:32;2.9;;;1.2;;
26824;SDS011;14402;48.178;11.566;2024-01-27T00:47:02;2.9;;;1.2;;
26824;SDS011;14402;48.178;11.566;2024-01-27T00:47:32;3.5;;;1.4;;
26824;SDS011;14402;48.178;11.566;2024-01-27T00:48:02;4.2;;;1.5;;
26824;SDS011;14402;48.178;11.566;2024-01-27T00:48:32;4.2;;;1.5;;
26824;SDS011;14402;48.178;11.566;2024-01-27T00:49:02;4.2;;;1.5;;
26824;SDS011;14402;48.178;11.566;2024-01-27T00:49:32;3.8;;;1.4;;
26824;SDS011;14402;48.178;11.566;2024-01-27T00:50:02;3.4;;;1.3;;
26824;SDS011;14402;48.178;11.566;2024-01-27T00:50:32;3.4;;;1.3;;
26824;SDS011;14402;48.178;11.566;2024-01-27T00:51:03;3.4;;;1.3;;
26824;SDS011;14402;48.178;11.566;2024-01-27T00:51:33;3.6;;;1.3;;
26824;SDS011;14402;48.178;11.566;2024-01-27T00:52:03;3.8;;;1.3;;
26824;SDS011;14402;48.178;11.566;2024-01-27T00:52:33;3.8;;;1.3;;
26824;SDS011;14402;48.178;11.566;2024-01-27T00:53:03;3.8;;;1.3;;
26824;SDS011;14402;48.178;11.566;2024-01-27T00:53:33;3.7;;;1.3;;
26824;SDS011;14402;48.178;11.566;2024-01-27T00:54:03;3.6;;;1.4;;
26824;SDS011;14402;48.178;11.566;2024-01-27T00:54:33;3.6;;;1.4;;
26824;SDS011;14402;48.178;11.566;2024-01-27T00:55:03;3.6;;;1.4;;
26824;SDS011;14402;48.178;11.566;2024-01-27T00:55:33;3.2;;;1.4;;
26824;SDS011;14402;48.178;11.566;2024-01-27T00:56:04;2.9;;;1.4;;
26824;SDS011;14402;48.178;11.566;2024-01-27T00:56:34;2.9;;;1.4;;
26824;SDS011;14402;48.178;11.566;2024-01-27T00:57:04;2.9;;;1.4;;
26824;SDS011;14402;48.178;11.566;2024-01-27T00:57:35;3.5;;;1.5;;
26824;SDS011;14402;48.178;11.566;2024-01-27T00:58:04;4.2;;;1.5;;
26824;SDS011;14402;48.178;11.566;2024-01-27T00:58:34;4.2;;;1.5;;
26824;SDS011;14402;48.178;11.566;2024-01-27T00:59:04;4.2;;;1.5;;
26824;SDS011;14402;48.178;11.566;2024-01-27T00:59:34;4.2;;;1.5;;
26824;SDS011;14402;48.178;11.566;2024-01-27T01:00:04;4.3;;;1.4;;
26824;SDS011;14402;48.178;11.566;2024-01-27T01:00:34;4.3;;;1.4;;
26824;SDS011;14402;48.178;11.566;2024-01-27T01:01:04;4.3;;;1.4;;
26824;SDS011;14402;48.178;11.566;2024-01-27T01:01:34;4.6;;;1.3;;
26824;SDS011;14402;48.178;11.566;2024-01-27T01:02:04;4.9;;;1.3;;
26824;SDS011;14402;48.178;11.566;2024-01-27T01:02:35;4.9;;;1.3;;
26824;SDS011;14402;48.178;11.566;2024-01-27T01:03:05;4.9;;;1.3;;
26824;SDS011;14402;48.178;11.566;2024-01-27T01:03:35;4.0;;;1.3;;
26824;SDS011;14402;48.178;11.566;2024-01-27T01:04:06;3.1;;;1.4;;
26824;SDS011;14402;48.178;11.566;2024-01-27T01:04:35;3.1;;;1.4;;
26824;SDS011;14402;48.178;11.566;2024-01-27T01:05:05;3.1;;;1.4;;
26824;SDS011;14402;48.178;11.566;2024-01-27T01:05:35;3.8;;;1.6;;
26824;SDS011;14402;48.178;11.566;2024-01-27T01:06:05;4.4;;;1.8;;
26824;SDS011;14402;48.178;11.566;2024-01-27T01:06:38;4.4;;;1.8;;
26824;SDS011;14402;48.178;11.566;2024-01-27T01:07:06;4.4;;;1.8;;
26824;SDS011;14402;48.178;11.566;2024-01-27T01:07:35;4.1;;;1.7;;
26824;SDS011;14402;48.178;11.566;2024-01-27T01:08:06;3.8;;;1.6;;
26824;SDS011;14402;48.178;11.566;2024-01-27T01:08:36;3.8;;;1.6;;
26824;SDS011;14402;48.178;11.566;2024-01-27T01:09:06;3.8;;;1.6;;
26824;SDS011;14402;48.178;11.566;2024-01-27T01:09:36;3.8;;;1.5;;
26824;SDS011;14402;48.178;11.566;2024-01-27T01:10:06;3.9;;;1.4;;
26824;SDS011;14402;48.178;11.566;2024-01-27T01:10:36;3.9;;;1.4;;
26824;SDS011;14402;48.178;11.566;2024-01-27T01:11:06;3.9;;;1.4;;
26824;SDS011;14402;48.178;11.566;2024-01-27T01:11:36;3.8;;;1.4;;
26824;SDS011;14402;48.178;11.566;2024-01-27T01:12:06;3.7;;;1.4;;
26824;SDS011;14402;48.178;11.566;2024-01-27T01:12:36;3.7;;;1.4;;
26824;SDS011;14402;48.178;11.566;2024-01-27T01:13:07;3.7;;;1.4;;
26824;SDS011;14402;48.178;11.566;2024-01-27T01:13:37;3.3;;;1.5;;
26824;SDS011;14402;48.178;11.566;2024-01-27T01:14:07;3.0;;;1.5;;
26824;SDS011;14402;48.178;11.566;2024-01-27T01:14:37;3.0;;;1.5;;
26824;SDS011;14402;48.178;11.566;2024-01-27T01:15:07;3.0;;;1.5;;
26824;SDS011;14402;48.178;11.566;2024-01-27T01:15:37;3.2;;;1.5;;
26824;SDS011;14402;48.178;11.566;2024-01-27T01:16:07;3.4;;;1.4;;
26824;SDS011;14402;48.178;11.566;2024-01-27T01:16:37;3.4;;;1.4;;
26824;SDS011;14402;48.178;11.566;2024-01-27T01:17:09;3.4;;;1.4;;
26824;SDS011;14402;48.178;11.566;2024-01-27T01:17:37;3.0;;;1.3;;
26824;SDS011;14402;48.178;11.566;2024-01-27T01:18:07;2.5;;;1.3;;
26824;SDS011;14402;48.178;11.566;2024-01-27T01:18:38;2.5;;;1.3;;
26824;SDS011;14402;48.178;11.566;2024-01-27T01:19:08;2.5;;;1.3;;
26824;SDS011;14402;48.178;11.566;2024-01-27T01:19:38;3.0;;;1.5;;
26824;SDS011;14402;48.178;11.566;2024-01-27T01:20:08;3.6;;;1.8;;
26824;SDS011;14402;48.178;11.566;2024-01-27T01:20:38;3.6;;;1.8;;
26824;SDS011;14402;48.178;11.566;2024-01-27T01:21:08;3.6;;;1.8;;
26824;SDS011;14402;48.178;11.566;2024-01-27T01:21:38;4.2;;;1.8;;
26824;SDS011;14402;48.178;11.566;2024-01-27T01:22:08;4.8;;;1.9;;
26824;SDS011;14402;48.178;11.566;2024-01-27T01:22:38;4.8;;;1.9;;
26824;SDS011;14402;48.178;11.566;2024-01-27T01:23:08;4.8;;;1.9;;
26824;SDS011;14402;48.178;11.566;2024-01-27T01:23:38;4.7;;;1.7;;
26824;SDS011;14402;48.178;11.566;2024-01-27T01:24:08;4.6;;;1.5;;
26824;SDS011;14402;48.178;11.566;2024-01-27T01:24:38;4.6;;;1.5;;
26824;SDS011;14402;48.178;11.566;2024-01-27T01:25:09;4.6;;;1.5;;
26824;SDS011;14402;48.178;11.566;2024-01-27T01:25:39;3.8;;;1.5;;
26824;SDS011;14402;48.178;11.566;2024-01-27T01:26:09;3.0;;;1.6;;
26824;SDS011;14402;48.178;11.566;2024-01-27T01:26:39;3.0;;;1.6;;
26824;SDS011;14402;48.178;11.566;2024-01-27T01:27:09;3.0;;;1.6;;
26824;SDS011;14402;48.178;11.566;2024-01-27T01:27:39;3.0;;;1.5;;
26824;SDS011;14402;48.178;11.566;2024-01-27T01:28:09;2.9;;;1.4;;
26824;SDS011;14402;48.178;11.566;2024-01-27T01:28:39;2.9;;;1.4;;
26824;SDS011;14402;48.178;11.566;2024-01-27T01:29:09;2.9;;;1.4;;
26824;SDS011;14402;48.178;11.566;2024-01-27T01:29:39;3.2;;;1.3;;
26824;SDS011;14402;48.178;11.566;2024-01-27T01:30:10;3.6;;;1.3;;
26824;SDS011;14402;48.178;11.566;2024-01-27T01:30:40;3.6;;;1.3;;
26824;SDS011;14402;48.178;11.566;2024-01-27T01:31:10;3.6;;;1.3;;
26824;SDS011;14402;48.178;11.566;2024-01-27T01:31:41;3.6;;;1.3;;
26824;SDS011;14402;48.178;11.566;2024-01-27T01:32:10;3.6;;;1.4;;
26824;SDS011;14402;48.178;11.566;2024-01-27T01:32:40;3.6;;;1.4;;
26824;SDS011;14402;48.178;11.566;2024-01-27T01:33:10;3.6;;;1.4;;
26824;SDS011;14402;48.178;11.566;2024-01-27T01:33:40;3.4;;;1.3;;
26824;SDS011;14402;48.178;11.566;2024-01-27T01:34:10;3.2;;;1.2;;
26824;SDS011;14402;48.178;11.566;2024-01-27T01:34:40;3.2;;;1.2;;
26824;SDS011;14402;48.178;11.566;2024-01-27T01:35:10;3.2;;;1.2;;
26824;SDS011;14402;48.178;11.566;2024-01-27T01:35:40;3.3;;;1.3;;
26824;SDS011;14402;48.178;11.566;2024-01-27T01:36:10;3.5;;;1.4;;
26824;SDS011;14402;48.178;11.566;2024-01-27T01:36:41;3.5;;;1.4;;
26824;SDS011;14402;48.178;11.566;2024-01-27T01:37:11;3.5;;;1.4;;
26824;SDS011;14402;48.178;11.566;2024-01-27T01:37:41;4.1;;;1.5;;
26824;SDS011;14402;48.178;11.566;2024-01-27T01:38:11;4.7;;;1.7;;
26824;SDS011;14402;48.178;11.566;2024-01-27T01:38:41;4.7;;;1.7;;
26824;SDS011;14402;48.178;11.566;2024-01-27T01:39:11;4.7;;;1.7;;
26824;SDS011;14402;48.178;11.566;2024-01-27T01:39:41;3.9;;;1.5;;
26824;SDS011;14402;48.178;11.566;2024-01-27T01:40:11;3.1;;;1.3;;
26824;SDS011;14402;48.178;11.566;2024-01-27T01:40:41;3.1;;;1.3;;
26824;SDS011;14402;48.178;11.566;2024-01-27T01:41:12;3.1;;;1.3;;
26824;SDS011;14402;48.178;11.566;2024-01-27T01:41:41;4.0;;;1.4;;
26824;SDS011;14402;48.178;11.566;2024-01-27T01:42:12;4.9;;;1.5;;
26824;SDS011;14402;48.178;11.566;2024-01-27T01:42:42;4.9;;;1.5;;
26824;SDS011;14402;48.178;11.566;2024-01-27T01:43:12;4.9;;;1.5;;
26824;SDS011;14402;48.178;11.566;2024-01-27T01:43:42;4.2;;;1.4;;
26824;SDS011;14402;48.178;11.566;2024-01-27T01:44:12;3.4;;;1.3;;
26824;SDS011;14402;48.178;11.566;2024-01-27T01:44:42;3.4;;;1.3;;
26824;SDS011;14402;48.178;11.566;2024-01-27T01:45:12;3.4;;;1.3;;
26824;SDS011;14402;48.178;11.566;2024-01-27T01:45:42;3.1;;;1.2;;
26824;SDS011;14402;48.178;11.566;2024-01-27T01:46:12;2.8;;;1.1;;
26824;SDS011;14402;48.178;11.566;2024-01-27T01:46:42;2.8;;;1.1;;
26824;SDS011;14402;48.178;11.566;2024-01-27T01:47:13;2.8;;;1.1;;
26824;SDS011;14402;48.178;11.566;2024-01-27T01:47:43;3.3;;;1.2;;
26824;SDS011;14402;48.178;11.566;2024-01-27T01:48:13;3.9;;;1.4;;
26824;SDS011;14402;48.178;11.566;2024-01-27T01:48:43;3.9;;;1.4;;
26824;SDS011;14402;48.178;11.566;2024-01-27T01:49:13;3.9;;;1.4;;
26824;SDS011;14402;48.178;11.566;2024-01-27T01:49:43;3.3;;;1.3;;
26824;SDS011;14402;48.178;11.566;2024-01-27T01:50:13;2.8;;;1.3;;
26824;SDS011;14402;48.178;11.566;2024-01-27T01:50:43;2.8;;;1.3;;
26824;SDS011;14402;48.178;11.566;2024-01-27T01:51:13;2.8;;;1.3;;
26824;SDS011;14402;48.178;11.566;2024-01-27T01:51:43;2.9;;;1.2;;
26824;SDS011;14402;48.178;11.566;2024-01-27T01:52:13;3.0;;;1.2;;
26824;SDS011;14402;48.178;11.566;2024-01-27T01:52:43;3.0;;;1.2;;
26824;SDS011;14402;48.178;11.566;2024-01-27T01:53:14;3.0;;;1.2;;
26824;SDS011;14402;48.178;11.566;2024-01-27T01:53:44;3.6;;;1.3;;
26824;SDS011;14402;48.178;11.566;2024-01-27T01:54:14;4.2;;;1.4;;
26824;SDS011;14402;48.178;11.566;2024-01-27T01:54:44;4.2;;;1.4;;
26824;SDS011;14402;48.178;11.566;2024-01-27T01:55:14;4.2;;;1.4;;
26824;SDS011;14402;48.178;11.566;2024-01-27T01:55:44;4.2;;;1.5;;
26824;SDS011;14402;48.178;11.566;2024-01-27T01:56:14;4.3;;;1.5;;
26824;SDS011;14402;48.178;11.566;2024-01-27T01:56:44;4.3;;;1.5;;
26824;SDS011;14402;48.178;11.566;2024-01-27T01:57:14;4.3;;;1.5;;
26824;SDS011;14402;48.178;11.566;2024-01-27T01:57:44;4.4;;;1.5;;
26824;SDS011;14402;48.178;11.566;2024-01-27T01:58:14;4.4;;;1.5;;
26824;SDS011;14402;48.178;11.566;2024-01-27T01:58:44;4.4;;;1.5;;
26824;SDS011;14402;48.178;11.566;2024-01-27T01:59:15;4.4;;;1.5;;
26824;SDS011;14402;48.178;11.566;2024-01-27T01:59:45;3.8;;;1.4;;
26824;SDS011;14402;48.178;11.566;2024-01-27T02:00:15;3.3;;;1.3;;
26824;SDS011;14402;48.178;11.566;2024-01-27T02:00:45;3.3;;;1.3;;
26824;SDS011;14402;48.178;11.566;2024-01-27T02:01:15;3.3;;;1.3;;
26824;SDS011;14402;48.178;11.566;2024-01-27T02:01:45;5.6;;;1.3;;
26824;SDS011;14402;48.178;11.566;2024-01-27T02:02:15;7.8;;;1.3;;
26824;SDS011;14402;48.178;11.566;2024-01-27T02:02:45;7.8;;;1.3;;
26824;SDS011;14402;48.178;11.566;2024-01-27T02:03:15;7.8;;;1.3;;
26824;SDS011;14402;48.178;11.566;2024-01-27T02:03:51;5.5;;;1.2;;
26824;SDS011;14402;48.178;11.566;2024-01-27T02:04:15;3.2;;;1.2;;
26824;SDS011;14402;48.178;11.566;2024-01-27T02:04:45;3.2;;;1.2;;
26824;SDS011;14402;48.178;11.566;2024-01-27T02:05:16;3.2;;;1.2;;
26824;SDS011;14402;48.178;11.566;2024-01-27T02:05:46;3.3;;;1.2;;
26824;SDS011;14402;48.178;11.566;2024-01-27T02:06:16;3.5;;;1.2;;
26824;SDS011;14402;48.178;11.566;2024-01-27T02:06:46;3.5;;;1.2;;
26824;SDS011;14402;48.178;11.566;2024-01-27T02:07:16;3.5;;;1.2;;
26824;SDS011;14402;48.178;11.566;2024-01-27T02:07:46;3.3;;;1.2;;
26824;SDS011;14402;48.178;11.566;2024-01-27T02:08:16;3.2;;;1.2;;
26824;SDS011;14402;48.178;11.566;2024-01-27T02:08:46;3.2;;;1.2;;
26824;SDS011;14402;48.178;11.566;2024-01-27T02:09:16;3.2;;;1.2;;
26824;SDS011;14402;48.178;11.566;2024-01-27T02:09:46;2.7;;;1.2;;
26824;SDS011;14402;48.178;11.566;2024-01-27T02:10:17;2.2;;;1.1;;
26824;SDS011;14402;48.178;11.566;2024-01-27T02:10:47;2.2;;;1.1;;
26824;SDS011;14402;48.178;11.566;2024-01-27T02:11:17;2.2;;;1.1;;
26824;SDS011;14402;48.178;11.566;2024-01-27T02:11:47;3.0;;;1.2;;
26824;SDS011;14402;48.178;11.566;2024-01-27T02:12:17;3.8;;;1.4;;
26824;SDS011;14402;48.178;11.566;2024-01-27T02:12:47;3.8;;;1.4;;
26824;SDS011;14402;48.178;11.566;2024-01-27T02:13:17;3.8;;;1.4;;
26824;SDS011;14402;48.178;11.566;2024-01-27T02:13:47;3.7;;;1.2;;
26824;SDS011;14402;48.178;11.566;2024-01-27T02:14:17;3.5;;;1.1;;
26824;SDS011;14402;48.178;11.566;2024-01-27T02:14:47;3.5;;;1.1;;
26824;SDS011;14402;48.178;11.566;2024-01-27T02:15:17;3.5;;;1.1;;
26824;SDS011;14402;48.178;11.566;2024-01-27T02:15:48;3.2;;;1.2;;
26824;SDS011;14402;48.178;11.566;2024-01-27T02:16:17;3.0;;;1.4;;
26824;SDS011;14402;48.178;11.566;2024-01-27T02:16:47;3.0;;;1.4;;
26824;SDS011;14402;48.178;11.566;2024-01-27T02:17:18;3.0;;;1.4;;
26824;SDS011;14402;48.178;11.566;2024-01-27T02:17:48;3.0;;;1.3;;
26824;SDS011;14402;48.178;11.566;2024-01-27T02:18:18;3.0;;;1.3;;
26824;SDS011;14402;48.178;11.566;2024-01-27T02:18:48;3.0;;;1.3;;
26824;SDS011;14402;48.178;11.566;2024-01-27T02:19:18;3.0;;;1.3;;
26824;SDS011;14402;48.178;11.566;2024-01-27T02:19:48;3.2;;;1.4;;
26824;SDS011;14402;48.178;11.566;2024-01-27T02:20:18;3.5;;;1.5;;
26824;SDS011;14402;48.178;11.566;2024-01-27T02:20:48;3.5;;;1.5;;
26824;SDS011;14402;48.178;11.566;2024-01-27T02:21:18;3.5;;;1.5;;
26824;SDS011;14402;48.178;11.566;2024-01-27T02:21:48;3.6;;;1.4;;
26824;SDS011;14402;48.178;11.566;2024-01-27T02:22:18;3.7;;;1.3;;
26824;SDS011;14402;48.178;11.566;2024-01-27T02:22:48;3.7;;;1.3;;
26824;SDS011;14402;48.178;11.566;2024-01-27T02:23:18;3.7;;;1.3;;
26824;SDS011;14402;48.178;11.566;2024-01-27T02:23:49;3.6;;;1.2;;
26824;SDS011;14402;48.178;11.566;2024-01-27T02:24:19;3.5;;;1.1;;
26824;SDS011;14402;48.178;11.566;2024-01-27T02:24:49;3.5;;;1.1;;
26824;SDS011;14402;48.178;11.566;2024-01-27T02:25:19;3.5;;;1.1;;
26824;SDS011;14402;48.178;11.566;2024-01-27T02:25:49;4.4;;;1.4;;
26824;SDS011;14402;48.178;11.566;2024-01-27T02:26:19;5.3;;;1.7;;
26824;SDS011;14402;48.178;11.566;2024-01-27T02:26:49;5.3;;;1.7;;
26824;SDS011;14402;48.178;11.566;2024-01-27T02:27:19;5.3;;;1.7;;
26824;SDS011;14402;48.178;11.566;2024-01-27T02:27:49;4.8;;;1.5;;
26824;SDS011;14402;48.178;11.566;2024-01-27T02:28:19;4.2;;;1.3;;
26824;SDS011;14402;48.178;11.566;2024-01-27T02:28:49;4.2;;;1.3;;
26824;SDS011;14402;48.178;11.566;2024-01-27T02:29:19;4.2;;;1.3;;
26824;SDS011;14402;48.178;11.566;2024-01-27T02:29:50;4.7;;;1.5;;
26824;SDS011;14402;48.178;11.566;2024-01-27T02:30:20;5.2;;;1.6;;
26824;SDS011;14402;48.178;11.566;2024-01-27T02:30:50;5.2;;;1.6;;
26824;SDS011;14402;48.178;11.566;2024-01-27T02:31:20;5.2;;;1.6;;
26824;SDS011;14402;48.178;11.566;2024-01-27T02:31:50;3.8;;;1.3;;
26824;SDS011;14402;48.178;11.566;2024-01-27T02:32:20;2.4;;;1.0;;
26824;SDS011;14402;48.178;11.566;2024-01-27T02:32:50;2.4;;;1.0;;
26824;SDS011;14402;48.178;11.566;2024-01-27T02:33:20;2.4;;;1.0;;
26824;SDS011;14402;48.178;11.566;2024-01-27T02:33:50;2.8;;;1.2;;
26824;SDS011;14402;48.178;11.566;2024-01-27T02:34:20;3.1;;;1.4;;
26824;SDS011;14402;48.178;11.566;2024-01-27T02:34:50;3.1;;;1.4;;
26824;SDS011;14402;48.178;11.566;2024-01-27T02:35:21;3.1;;;1.4;;
26824;SDS011;14402;48.178;11.566;2024-01-27T02:35:50;3.0;;;1.2;;
26824;SDS011;14402;48.178;11.566;2024-01-27T02:36:21;3.0;;;1.1;;
26824;SDS011;14402;48.178;11.566;2024-01-27T02:36:51;3.0;;;1.1;;
26824;SDS011;14402;48.178;11.566;2024-01-27T02:37:21;3.0;;;1.1;;
26824;SDS011;14402;48.178;11.566;2024-01-27T02:37:51;3.5;;;1.2;;
26824;SDS011;14402;48.178;11.566;2024-01-27T02:38:21;3.9;;;1.3;;
26824;SDS011;14402;48.178;11.566;2024-01-27T02:38:51;3.9;;;1.3;;
26824;SDS011;14402;48.178;11.566;2024-01-27T02:39:21;3.9;;;1.3;;
26824;SDS011;14402;48.178;11.566;2024-01-27T02:39:51;4.4;;;1.5;;
26824;SDS011;14402;48.178;11.566;2024-01-27T02:40:21;5.0;;;1.6;;
26824;SDS011;14402;48.178;11.566;2024-01-27T02:40:51;5.0;;;1.6;;
26824;SDS011;14402;48.178;11.566;2024-01-27T02:41:22;5.0;;;1.6;;
26824;SDS011;14402;48.178;11.566;2024-01-27T02:41:52;4.2;;;1.4;;
26824;SDS011;14402;48.178;11.566;2024-01-27T02:42:22;3.3;;;1.2;;
26824;SDS011;14402;48.178;11.566;2024-01-27T02:42:52;3.3;;;1.2;;
26824;SDS011;14402;48.178;11.566;2024-01-27T02:43:22;3.3;;;1.2;;
26824;SDS011;14402;48.178;11.566;2024-01-27T02:43:52;3.2;;;1.2;;
26824;SDS011;14402;48.178;11.566;2024-01-27T02:44:22;3.2;;;1.1;;
26824;SDS011;14402;48.178;11.566;2024-01-27T02:44:52;3.2;;;1.1;;
26824;SDS011;14402;48.178;11.566;2024-01-27T02:45:22;3.2;;;1.1;;
26824;SDS011;14402;48.178;11.566;2024-01-27T02:45:52;3.1;;;1.0;;
26824;SDS011;14402;48.178;11.566;2024-01-27T02:46:22;3.0;;;1.0;;
26824;SDS011;14402;48.178;11.566;2024-01-27T02:46:52;3.0;;;1.0;;
26824;SDS011;14402;48.178;11.566;2024-01-27T02:47:23;3.0;;;1.0;;
26824;SDS011;14402;48.178;11.566;2024-01-27T02:47:52;3.4;;;1.1;;
26824;SDS011;14402;48.178;11.566;2024-01-27T02:48:23;3.8;;;1.2;;
26824;SDS011;14402;48.178;11.566;2024-01-27T02:48:53;3.8;;;1.2;;
26824;SDS011;14402;48.178;11.566;2024-01-27T02:49:23;3.8;;;1.2;;
26824;SDS011;14402;48.178;11.566;2024-01-27T02:49:53;3.9;;;1.2;;
26824;SDS011;14402;48.178;11.566;2024-01-27T02:50:23;4.0;;;1.2;;
26824;SDS011;14402;48.178;11.566;2024-01-27T02:50:53;4.0;;;1.2;;
26824;SDS011;14402;48.178;11.566;2024-01-27T02:51:23;4.0;;;1.2;;
26824;SDS011;14402;48.178;11.566;2024-01-27T02:51:53;4.8;;;1.2;;
26824;SDS011;14402;48.178;11.566;2024-01-27T02:52:23;5.7;;;1.3;;
26824;SDS011;14402;48.178;11.566;2024-01-27T02:52:53;5.7;;;1.3;;
26824;SDS011;14402;48.178;11.566;2024-01-27T02:53:24;5.7;;;1.3;;
26824;SDS011;14402;48.178;11.566;2024-01-27T02:53:54;4.9;;;1.3;;
26824;SDS011;14402;48.178;11.566;2024-01-27T02:54:24;4.2;;;1.4;;
26824;SDS011;14402;48.178;11.566;2024-01-27T02:54:54;4.2;;;1.4;;
26824;SDS011;14402;48.178;11.566;2024-01-27T02:55:24;4.2;;;1.4;;
26824;SDS011;14402;48.178;11.566;2024-01-27T02:55:54;4.2;;;1.5;;
26824;SDS011;14402;48.178;11.566;2024-01-27T02:56:24;4.2;;;1.5;;
26824;SDS011;14402;48.178;11.566;2024-01-27T02:56:54;4.2;;;1.5;;
26824;SDS011;14402;48.178;11.566;2024-01-27T02:57:24;4.2;;;1.5;;
26824;SDS011;14402;48.178;11.566;2024-01-27T02:57:54;4.8;;;1.4;;
26824;SDS011;14402;48.178;11.566;2024-01-27T02:58:24;5.3;;;1.2;;
26824;SDS011;14402;48.178;11.566;2024-01-27T02:58:54;5.3;;;1.2;;
26824;SDS011;14402;48.178;11.566;2024-01-27T02:59:25;5.3;;;1.2;;
26824;SDS011;14402;48.178;11.566;2024-01-27T02:59:55;4.8;;;1.2;;
26824;SDS011;14402;48.178;11.566;2024-01-27T03:00:25;4.3;;;1.3;;
26824;SDS011;14402;48.178;11.566;2024-01-27T03:00:55;4.3;;;1.3;;
26824;SDS011;14402;48.178;11.566;2024-01-27T03:01:25;4.3;;;1.3;;
26824;SDS011;14402;48.178;11.566;2024-01-27T03:01:55;3.6;;;1.2;;
26824;SDS011;14402;48.178;11.566;2024-01-27T03:02:25;2.9;;;1.1;;
26824;SDS011;14402;48.178;11.566;2024-01-27T03:02:55;2.9;;;1.1;;
26824;SDS011;14402;48.178;11.566;2024-01-27T03:03:25;2.9;;;1.1;;
26824;SDS011;14402;48.178;11.566;2024-01-27T03:03:55;3.2;;;1.2;;